TimeCDT,TemperatureF,Dew PointF,Humidity,Sea Level PressureIn,VisibilityMPH,Wind Direction,Wind SpeedMPH,Gust SpeedMPH,PrecipitationIn,Events,Conditions,WindDirDegrees,DateUTC
12:15 AM,32.2,27.1,82,29.81,10.0,WNW,9.2,-,N/A,,Mostly Cloudy,300,2013-04-12 05:15:00
12:35 AM,32.2,27.0,81,29.81,10.0,WNW,10.4,-,N/A,,Scattered Clouds,300,2013-04-12 05:35:00
12:55 AM,32.0,26.6,80,29.81,10.0,WNW,11.5,17.3,N/A,,Clear,300,2013-04-12 05:55:00
1:15 AM,32.0,26.4,80,29.82,10.0,WNW,9.2,-,N/A,,Clear,290,2013-04-12 06:15:00
1:35 AM,31.8,26.1,79,29.82,10.0,WNW,10.4,-,N/A,,Clear,300,2013-04-12 06:35:00
1:55 AM,31.8,26.1,79,29.82,10.0,WNW,13.8,-,N/A,,Clear,300,2013-04-12 06:55:00
2:15 AM,32.0,26.1,79,29.83,10.0,WNW,11.5,-,N/A,,Clear,300,2013-04-12 07:15:00
2:35 AM,31.6,25.7,79,29.83,10.0,WNW,11.5,-,N/A,,Clear,300,2013-04-12 07:35:00
2:55 AM,31.5,25.7,79,29.83,10.0,WNW,12.7,16.1,N/A,,Clear,300,2013-04-12 07:55:00
3:15 AM,31.1,25.3,79,29.83,10.0,NW,10.4,-,N/A,,Clear,310,2013-04-12 08:15:00
3:35 AM,31.1,24.8,77,29.83,10.0,NW,8.1,-,N/A,,Clear,310,2013-04-12 08:35:00
3:55 AM,30.7,25.2,80,29.83,10.0,NW,8.1,-,N/A,,Clear,310,2013-04-12 08:55:00
4:15 AM,30.6,24.8,79,29.83,10.0,NW,11.5,-,N/A,,Clear,320,2013-04-12 09:15:00
4:35 AM,30.7,24.8,79,29.85,10.0,WNW,9.2,-,N/A,,Clear,300,2013-04-12 09:35:00
4:55 AM,30.6,24.8,79,29.85,10.0,WNW,9.2,-,N/A,,Clear,300,2013-04-12 09:55:00
5:15 AM,30.6,24.8,79,29.85,10.0,NW,10.4,-,N/A,,Clear,310,2013-04-12 10:15:00
5:35 AM,30.6,24.8,79,29.85,10.0,WNW,10.4,16.1,N/A,,Clear,300,2013-04-12 10:35:00
5:55 AM,30.2,24.8,80,29.85,10.0,NW,10.4,17.3,N/A,,Clear,310,2013-04-12 10:55:00
6:15 AM,30.2,24.6,80,29.87,10.0,WNW,11.5,-,N/A,,Clear,300,2013-04-12 11:15:00
6:35 AM,29.7,24.4,81,29.87,10.0,NNW,9.2,-,N/A,,Clear,330,2013-04-12 11:35:00
6:55 AM,29.3,24.4,82,29.88,10.0,NW,6.9,-,N/A,,Clear,310,2013-04-12 11:55:00
7:15 AM,29.3,24.4,82,29.90,10.0,WNW,6.9,-,N/A,,Clear,290,2013-04-12 12:15:00
7:35 AM,29.7,24.8,82,29.91,10.0,West,8.1,-,N/A,,Clear,280,2013-04-12 12:35:00
7:55 AM,30.4,25.3,82,29.91,10.0,WNW,10.4,-,N/A,,Clear,290,2013-04-12 12:55:00
8:15 AM,31.6,25.5,78,29.92,10.0,WNW,11.5,-,N/A,,Clear,300,2013-04-12 13:15:00
8:35 AM,32.0,25.3,76,29.93,10.0,WNW,13.8,20.7,N/A,,Clear,300,2013-04-12 13:35:00
8:55 AM,33.3,25.9,74,29.93,10.0,NW,15.0,20.7,N/A,,Scattered Clouds,310,2013-04-12 13:55:00
9:15 AM,34.3,25.7,71,29.93,10.0,NW,13.8,21.9,N/A,,Scattered Clouds,320,2013-04-12 14:15:00
9:55 AM,36.9,26.4,66,29.93,10.0,NW,15.0,20.7,N/A,,Clear,310,2013-04-12 14:55:00
10:15 AM,38.1,26.8,64,29.93,10.0,NW,13.8,20.7,N/A,,Clear,320,2013-04-12 15:15:00
10:35 AM,39.4,27.7,63,29.93,10.0,NNW,18.4,27.6,N/A,,Clear,330,2013-04-12 15:35:00
10:55 AM,40.1,27.9,62,29.94,10.0,NNW,20.7,26.5,N/A,,Clear,330,2013-04-12 15:55:00
11:15 AM,41.0,28.0,60,29.94,10.0,NNW,20.7,27.6,N/A,,Clear,330,2013-04-12 16:15:00
11:35 AM,41.9,28.9,60,29.95,10.0,NW,15.0,23.0,N/A,,Clear,310,2013-04-12 16:35:00
11:55 AM,42.6,29.1,59,29.95,10.0,NW,13.8,25.3,N/A,,Clear,310,2013-04-12 16:55:00
12:15 PM,44.2,30.2,58,29.95,10.0,NW,12.7,20.7,N/A,,Scattered Clouds,320,2013-04-12 17:15:00
12:35 PM,45.0,30.6,57,29.95,10.0,NW,13.8,18.4,N/A,,Scattered Clouds,310,2013-04-12 17:35:00
12:55 PM,45.5,30.2,55,29.95,10.0,NW,13.8,25.3,N/A,,Scattered Clouds,320,2013-04-12 17:55:00
1:15 PM,46.8,29.8,52,29.95,10.0,NNW,17.3,24.2,N/A,,Scattered Clouds,330,2013-04-12 18:15:00
1:35 PM,47.3,27.7,47,29.95,10.0,NNW,18.4,23.0,N/A,,Scattered Clouds,340,2013-04-12 18:35:00
1:55 PM,47.8,29.3,49,29.95,10.0,NW,16.1,24.2,N/A,,Scattered Clouds,320,2013-04-12 18:55:00
2:15 PM,48.2,27.5,45,29.96,10.0,NW,17.3,27.6,N/A,,Scattered Clouds,320,2013-04-12 19:15:00
2:35 PM,48.9,29.7,47,29.96,10.0,NNW,19.6,25.3,N/A,,Scattered Clouds,330,2013-04-12 19:35:00
2:55 PM,50.0,29.7,46,29.96,10.0,NW,16.1,23.0,N/A,,Scattered Clouds,320,2013-04-12 19:55:00
3:15 PM,48.9,27.0,43,29.96,10.0,NW,19.6,26.5,N/A,,Scattered Clouds,310,2013-04-12 20:15:00
3:35 PM,49.1,27.9,44,29.96,10.0,NNW,13.8,23.0,N/A,,Scattered Clouds,330,2013-04-12 20:35:00
3:55 PM,50.4,27.5,41,29.95,10.0,NNW,18.4,25.3,N/A,,Scattered Clouds,330,2013-04-12 20:55:00
4:15 PM,50.5,27.7,41,29.95,10.0,NW,13.8,23.0,N/A,,Scattered Clouds,320,2013-04-12 21:15:00
4:35 PM,50.9,28.0,41,29.95,10.0,NW,12.7,-,N/A,,Scattered Clouds,310,2013-04-12 21:35:00
4:55 PM,50.4,28.9,44,29.95,10.0,NW,17.3,23.0,N/A,,Scattered Clouds,310,2013-04-12 21:55:00
5:15 PM,50.5,27.7,41,29.94,10.0,NW,13.8,26.5,N/A,,Clear,320,2013-04-12 22:15:00
5:35 PM,50.5,27.5,41,29.95,10.0,NW,15.0,20.7,N/A,,Clear,320,2013-04-12 22:35:00
5:55 PM,50.7,27.9,41,29.96,10.0,NW,15.0,23.0,N/A,,Scattered Clouds,310,2013-04-12 22:55:00
6:15 PM,49.3,28.9,45,29.98,10.0,WNW,17.3,20.7,N/A,,Mostly Cloudy,300,2013-04-12 23:15:00
6:35 PM,49.1,29.3,46,29.97,10.0,NW,11.5,-,N/A,,Overcast,320,2013-04-12 23:35:00
6:55 PM,48.6,29.3,47,29.97,10.0,NW,11.5,18.4,N/A,,Overcast,320,2013-04-12 23:55:00
7:15 PM,48.2,28.2,46,29.98,10.0,NNW,11.5,-,N/A,,Overcast,330,2013-04-13 00:15:00
7:35 PM,47.5,28.6,48,29.97,10.0,NNW,11.5,-,N/A,,Overcast,340,2013-04-13 00:35:00
7:55 PM,47.3,29.7,50,29.97,10.0,NNW,6.9,-,N/A,,Overcast,340,2013-04-13 00:55:00
8:15 PM,45.5,30.2,55,29.97,10.0,NW,4.6,-,N/A,,Mostly Cloudy,320,2013-04-13 01:15:00
8:35 PM,44.8,30.9,58,29.97,10.0,NW,5.8,-,N/A,,Mostly Cloudy,320,2013-04-13 01:35:00
8:55 PM,44.2,30.4,58,29.99,10.0,NNW,9.2,-,N/A,,Mostly Cloudy,330,2013-04-13 01:55:00
9:15 PM,43.2,30.9,62,30.00,10.0,NW,5.8,-,N/A,,Mostly Cloudy,320,2013-04-13 02:15:00
9:35 PM,42.1,31.5,66,30.00,10.0,NW,3.5,-,N/A,,Mostly Cloudy,320,2013-04-13 02:35:00
9:55 PM,41.0,31.3,68,30.00,10.0,NW,3.5,-,N/A,,Scattered Clouds,320,2013-04-13 02:55:00
10:15 PM,40.5,31.1,69,30.01,10.0,WNW,3.5,-,N/A,,Scattered Clouds,300,2013-04-13 03:15:00
10:35 PM,38.8,31.1,74,30.02,10.0,Calm,Calm,-,N/A,,Scattered Clouds,0,2013-04-13 03:35:00
10:55 PM,37.9,31.1,76,30.02,10.0,Calm,Calm,-,N/A,,Mostly Cloudy,0,2013-04-13 03:55:00
11:15 PM,39.2,32.0,75,30.03,10.0,Calm,Calm,-,N/A,,Overcast,0,2013-04-13 04:15:00
11:35 PM,38.3,31.5,76,30.03,10.0,WSW,3.5,-,N/A,,Scattered Clouds,240,2013-04-13 04:35:00
11:55 PM,36.1,31.1,82,30.03,10.0,WSW,3.5,-,N/A,,Clear,240,2013-04-13 04:55:00